sensor_id;sensor_type;location;lat;lon;timestamp;P1;durP1;ratioP1;P2;durP2;ratioP2
54743;SDS011;40639;53.170;6.728;2023-04-23T00:00:44;27.65;;;18.27;;
54743;SDS011;40639;53.170;6.728;2023-04-23T00:03:11;28.83;;;17.63;;
54743;SDS011;40639;53.170;6.728;2023-04-23T00:05:38;31.15;;;18.27;;
54743;SDS011;40639;53.170;6.728;2023-04-23T00:08:06;30.10;;;18.70;;
54743;SDS011;40639;53.170;6.728;2023-04-23T00:10:33;34.20;;;20.08;;
54743;SDS011;40639;53.170;6.728;2023-04-23T00:12:59;39.40;;;20.17;;
54743;SDS011;40639;53.170;6.728;2023-04-23T00:15:26;48.15;;;21.20;;
54743;SDS011;40639;53.170;6.728;2023-04-23T00:17:52;48.60;;;22.75;;
54743;SDS011;40639;53.170;6.728;2023-04-23T00:20:18;40.78;;;22.60;;
54743;SDS011;40639;53.170;6.728;2023-04-23T00:22:44;41.35;;;21.98;;
54743;SDS011;40639;53.170;6.728;2023-04-23T00:25:10;35.55;;;21.40;;
54743;SDS011;40639;53.170;6.728;2023-04-23T00:27:37;49.15;;;21.42;;
54743;SDS011;40639;53.170;6.728;2023-04-23T00:30:03;41.53;;;21.10;;
54743;SDS011;40639;53.170;6.728;2023-04-23T00:32:29;41.90;;;20.75;;
54743;SDS011;40639;53.170;6.728;2023-04-23T00:34:56;55.40;;;22.42;;
54743;SDS011;40639;53.170;6.728;2023-04-23T00:37:22;38.88;;;20.35;;
54743;SDS011;40639;53.170;6.728;2023-04-23T00:39:48;42.90;;;19.48;;
54743;SDS011;40639;53.170;6.728;2023-04-23T00:42:14;36.47;;;19.42;;
54743;SDS011;40639;53.170;6.728;2023-04-23T00:44:41;35.05;;;19.13;;
54743;SDS011;40639;53.170;6.728;2023-04-23T00:47:08;51.55;;;20.33;;
54743;SDS011;40639;53.170;6.728;2023-04-23T00:49:34;37.05;;;19.60;;
54743;SDS011;40639;53.170;6.728;2023-04-23T00:52:01;36.97;;;19.50;;
54743;SDS011;40639;53.170;6.728;2023-04-23T00:54:27;44.63;;;19.05;;
54743;SDS011;40639;53.170;6.728;2023-04-23T00:56:53;42.13;;;18.80;;
54743;SDS011;40639;53.170;6.728;2023-04-23T00:59:22;43.55;;;20.75;;
54743;SDS011;40639;53.170;6.728;2023-04-23T01:01:49;35.17;;;19.13;;
54743;SDS011;40639;53.170;6.728;2023-04-23T01:04:15;39.00;;;19.95;;
54743;SDS011;40639;53.170;6.728;2023-04-23T01:06:42;50.55;;;21.15;;
54743;SDS011;40639;53.170;6.728;2023-04-23T01:09:11;44.20;;;20.13;;
54743;SDS011;40639;53.170;6.728;2023-04-23T01:11:41;58.42;;;21.85;;
54743;SDS011;40639;53.170;6.728;2023-04-23T01:14:08;40.13;;;20.17;;
54743;SDS011;40639;53.170;6.728;2023-04-23T01:16:35;43.17;;;20.52;;
54743;SDS011;40639;53.170;6.728;2023-04-23T01:19:06;37.67;;;18.95;;
54743;SDS011;40639;53.170;6.728;2023-04-23T01:21:36;37.13;;;20.15;;
54743;SDS011;40639;53.170;6.728;2023-04-23T01:24:02;36.47;;;19.58;;
54743;SDS011;40639;53.170;6.728;2023-04-23T01:26:29;31.90;;;19.25;;
54743;SDS011;40639;53.170;6.728;2023-04-23T01:28:55;35.53;;;20.02;;
54743;SDS011;40639;53.170;6.728;2023-04-23T01:31:22;36.30;;;19.88;;
54743;SDS011;40639;53.170;6.728;2023-04-23T01:33:49;32.55;;;19.65;;
54743;SDS011;40639;53.170;6.728;2023-04-23T01:36:16;34.97;;;19.98;;
54743;SDS011;40639;53.170;6.728;2023-04-23T01:38:43;34.88;;;18.38;;
54743;SDS011;40639;53.170;6.728;2023-04-23T01:41:09;34.20;;;18.30;;
54743;SDS011;40639;53.170;6.728;2023-04-23T01:43:35;33.78;;;18.48;;
54743;SDS011;40639;53.170;6.728;2023-04-23T01:46:02;31.20;;;19.08;;
54743;SDS011;40639;53.170;6.728;2023-04-23T01:48:28;33.38;;;19.48;;
54743;SDS011;40639;53.170;6.728;2023-04-23T01:50:54;33.60;;;19.33;;
54743;SDS011;40639;53.170;6.728;2023-04-23T01:53:21;32.10;;;19.55;;
54743;SDS011;40639;53.170;6.728;2023-04-23T01:55:47;32.20;;;19.02;;
54743;SDS011;40639;53.170;6.728;2023-04-23T01:58:15;37.28;;;20.17;;
54743;SDS011;40639;53.170;6.728;2023-04-23T02:00:42;38.17;;;22.20;;
54743;SDS011;40639;53.170;6.728;2023-04-23T02:03:08;35.25;;;19.83;;
54743;SDS011;40639;53.170;6.728;2023-04-23T02:05:34;34.40;;;20.35;;
54743;SDS011;40639;53.170;6.728;2023-04-23T02:08:01;34.25;;;19.35;;
54743;SDS011;40639;53.170;6.728;2023-04-23T02:10:27;34.30;;;19.65;;
54743;SDS011;40639;53.170;6.728;2023-04-23T02:12:54;31.13;;;18.90;;
54743;SDS011;40639;53.170;6.728;2023-04-23T02:15:20;34.33;;;19.92;;
54743;SDS011;40639;53.170;6.728;2023-04-23T02:17:46;34.03;;;18.85;;
54743;SDS011;40639;53.170;6.728;2023-04-23T02:20:15;35.15;;;20.45;;
54743;SDS011;40639;53.170;6.728;2023-04-23T02:22:41;35.45;;;20.00;;
54743;SDS011;40639;53.170;6.728;2023-04-23T02:25:08;37.00;;;22.15;;
54743;SDS011;40639;53.170;6.728;2023-04-23T02:27:34;38.97;;;22.33;;
54743;SDS011;40639;53.170;6.728;2023-04-23T02:30:01;39.60;;;22.85;;
54743;SDS011;40639;53.170;6.728;2023-04-23T02:32:27;39.60;;;22.60;;
54743;SDS011;40639;53.170;6.728;2023-04-23T02:34:53;41.28;;;23.30;;
54743;SDS011;40639;53.170;6.728;2023-04-23T02:37:20;43.83;;;24.35;;
54743;SDS011;40639;53.170;6.728;2023-04-23T02:39:46;46.78;;;24.35;;
54743;SDS011;40639;53.170;6.728;2023-04-23T02:42:12;43.78;;;24.63;;
54743;SDS011;40639;53.170;6.728;2023-04-23T02:44:39;43.22;;;24.55;;
54743;SDS011;40639;53.170;6.728;2023-04-23T02:47:05;43.83;;;25.33;;
54743;SDS011;40639;53.170;6.728;2023-04-23T02:49:31;44.13;;;24.50;;
54743;SDS011;40639;53.170;6.728;2023-04-23T02:51:57;44.70;;;25.05;;
54743;SDS011;40639;53.170;6.728;2023-04-23T02:54:23;46.50;;;25.92;;
54743;SDS011;40639;53.170;6.728;2023-04-23T02:56:50;44.25;;;23.88;;
54743;SDS011;40639;53.170;6.728;2023-04-23T02:59:16;43.00;;;24.08;;
54743;SDS011;40639;53.170;6.728;2023-04-23T03:01:42;43.17;;;25.58;;
54743;SDS011;40639;53.170;6.728;2023-04-23T03:04:08;44.20;;;25.02;;
54743;SDS011;40639;53.170;6.728;2023-04-23T03:06:36;42.05;;;23.98;;
54743;SDS011;40639;53.170;6.728;2023-04-23T03:09:02;45.60;;;25.75;;
54743;SDS011;40639;53.170;6.728;2023-04-23T03:11:29;45.60;;;26.13;;
54743;SDS011;40639;53.170;6.728;2023-04-23T03:13:55;45.95;;;25.98;;
54743;SDS011;40639;53.170;6.728;2023-04-23T03:16:21;50.30;;;26.35;;
54743;SDS011;40639;53.170;6.728;2023-04-23T03:18:47;50.28;;;27.33;;
54743;SDS011;40639;53.170;6.728;2023-04-23T03:21:13;45.60;;;25.50;;
54743;SDS011;40639;53.170;6.728;2023-04-23T03:23:40;51.78;;;26.70;;
54743;SDS011;40639;53.170;6.728;2023-04-23T03:26:06;48.55;;;26.05;;
54743;SDS011;40639;53.170;6.728;2023-04-23T03:28:32;51.60;;;27.27;;
54743;SDS011;40639;53.170;6.728;2023-04-23T03:30:58;45.53;;;25.55;;
54743;SDS011;40639;53.170;6.728;2023-04-23T03:33:24;48.33;;;26.00;;
54743;SDS011;40639;53.170;6.728;2023-04-23T03:35:50;53.50;;;29.42;;
54743;SDS011;40639;53.170;6.728;2023-04-23T03:38:16;55.85;;;28.92;;
54743;SDS011;40639;53.170;6.728;2023-04-23T03:40:43;56.65;;;28.05;;
54743;SDS011;40639;53.170;6.728;2023-04-23T03:43:09;56.85;;;30.65;;
54743;SDS011;40639;53.170;6.728;2023-04-23T03:45:36;54.53;;;29.30;;
54743;SDS011;40639;53.170;6.728;2023-04-23T03:48:02;57.53;;;30.20;;
54743;SDS011;40639;53.170;6.728;2023-04-23T03:50:28;59.10;;;30.17;;
54743;SDS011;40639;53.170;6.728;2023-04-23T03:52:55;60.03;;;30.83;;
54743;SDS011;40639;53.170;6.728;2023-04-23T03:55:21;61.42;;;30.55;;
54743;SDS011;40639;53.170;6.728;2023-04-23T03:57:48;55.92;;;29.63;;
54743;SDS011;40639;53.170;6.728;2023-04-23T04:00:14;64.38;;;31.45;;
54743;SDS011;40639;53.170;6.728;2023-04-23T04:02:40;60.53;;;31.17;;
54743;SDS011;40639;53.170;6.728;2023-04-23T04:05:06;64.00;;;32.58;;
54743;SDS011;40639;53.170;6.728;2023-04-23T04:07:35;62.60;;;33.00;;
54743;SDS011;40639;53.170;6.728;2023-04-23T04:10:01;69.80;;;34.65;;
54743;SDS011;40639;53.170;6.728;2023-04-23T04:12:27;68.15;;;33.00;;
54743;SDS011;40639;53.170;6.728;2023-04-23T04:14:54;64.03;;;32.22;;
54743;SDS011;40639;53.170;6.728;2023-04-23T04:17:20;68.57;;;35.17;;
54743;SDS011;40639;53.170;6.728;2023-04-23T04:19:46;67.65;;;34.53;;
54743;SDS011;40639;53.170;6.728;2023-04-23T04:22:13;69.22;;;34.40;;
54743;SDS011;40639;53.170;6.728;2023-04-23T04:24:40;66.85;;;33.47;;
54743;SDS011;40639;53.170;6.728;2023-04-23T04:27:06;71.63;;;33.90;;
54743;SDS011;40639;53.170;6.728;2023-04-23T04:29:33;74.72;;;35.60;;
54743;SDS011;40639;53.170;6.728;2023-04-23T04:31:59;72.03;;;35.60;;
54743;SDS011;40639;53.170;6.728;2023-04-23T04:34:26;76.97;;;37.17;;
54743;SDS011;40639;53.170;6.728;2023-04-23T04:36:53;76.53;;;37.13;;
54743;SDS011;40639;53.170;6.728;2023-04-23T04:39:19;71.45;;;36.45;;
54743;SDS011;40639;53.170;6.728;2023-04-23T04:41:45;96.00;;;39.95;;
54743;SDS011;40639;53.170;6.728;2023-04-23T04:44:12;85.50;;;40.13;;
54743;SDS011;40639;53.170;6.728;2023-04-23T04:46:40;93.85;;;40.70;;
54743;SDS011;40639;53.170;6.728;2023-04-23T04:49:10;91.05;;;40.67;;
54743;SDS011;40639;53.170;6.728;2023-04-23T04:51:36;114.15;;;42.30;;
54743;SDS011;40639;53.170;6.728;2023-04-23T04:54:02;130.57;;;44.70;;
54743;SDS011;40639;53.170;6.728;2023-04-23T04:56:29;108.40;;;44.45;;
54743;SDS011;40639;53.170;6.728;2023-04-23T04:58:55;110.60;;;44.17;;
54743;SDS011;40639;53.170;6.728;2023-04-23T05:01:21;110.40;;;45.13;;
54743;SDS011;40639;53.170;6.728;2023-04-23T05:03:48;109.00;;;43.42;;
54743;SDS011;40639;53.170;6.728;2023-04-23T05:06:14;213.80;;;50.33;;
54743;SDS011;40639;53.170;6.728;2023-04-23T05:08:41;255.98;;;49.72;;
54743;SDS011;40639;53.170;6.728;2023-04-23T05:11:12;244.45;;;54.85;;
54743;SDS011;40639;53.170;6.728;2023-04-23T05:13:39;346.98;;;58.40;;
54743;SDS011;40639;53.170;6.728;2023-04-23T05:16:05;230.05;;;53.78;;
54743;SDS011;40639;53.170;6.728;2023-04-23T05:18:31;301.77;;;59.63;;
54743;SDS011;40639;53.170;6.728;2023-04-23T05:20:57;292.60;;;57.90;;
54743;SDS011;40639;53.170;6.728;2023-04-23T05:23:24;315.40;;;62.97;;
54743;SDS011;40639;53.170;6.728;2023-04-23T05:25:50;290.80;;;64.03;;
54743;SDS011;40639;53.170;6.728;2023-04-23T05:28:19;317.02;;;64.40;;
54743;SDS011;40639;53.170;6.728;2023-04-23T05:30:46;293.65;;;63.33;;
54743;SDS011;40639;53.170;6.728;2023-04-23T05:33:12;214.63;;;62.15;;
54743;SDS011;40639;53.170;6.728;2023-04-23T05:35:38;207.45;;;64.78;;
54743;SDS011;40639;53.170;6.728;2023-04-23T05:38:04;155.32;;;60.60;;
54743;SDS011;40639;53.170;6.728;2023-04-23T05:40:31;156.50;;;59.58;;
54743;SDS011;40639;53.170;6.728;2023-04-23T05:42:57;152.70;;;59.28;;
54743;SDS011;40639;53.170;6.728;2023-04-23T05:45:27;151.10;;;56.50;;
54743;SDS011;40639;53.170;6.728;2023-04-23T05:47:53;145.05;;;57.83;;
54743;SDS011;40639;53.170;6.728;2023-04-23T05:50:19;135.15;;;57.85;;
54743;SDS011;40639;53.170;6.728;2023-04-23T05:52:48;137.23;;;59.05;;
54743;SDS011;40639;53.170;6.728;2023-04-23T05:55:15;130.15;;;58.05;;
54743;SDS011;40639;53.170;6.728;2023-04-23T05:57:45;137.25;;;55.95;;
54743;SDS011;40639;53.170;6.728;2023-04-23T06:00:11;129.20;;;54.03;;
54743;SDS011;40639;53.170;6.728;2023-04-23T06:02:38;114.95;;;50.20;;
54743;SDS011;40639;53.170;6.728;2023-04-23T06:05:05;120.68;;;53.45;;
54743;SDS011;40639;53.170;6.728;2023-04-23T06:10:17;112.25;;;50.42;;
54743;SDS011;40639;53.170;6.728;2023-04-23T06:12:43;104.90;;;48.22;;
54743;SDS011;40639;53.170;6.728;2023-04-23T06:15:10;104.05;;;48.72;;
54743;SDS011;40639;53.170;6.728;2023-04-23T06:17:36;102.63;;;46.58;;
54743;SDS011;40639;53.170;6.728;2023-04-23T06:20:07;95.22;;;45.08;;
54743;SDS011;40639;53.170;6.728;2023-04-23T06:22:36;93.38;;;44.13;;
54743;SDS011;40639;53.170;6.728;2023-04-23T06:25:02;96.78;;;45.60;;
54743;SDS011;40639;53.170;6.728;2023-04-23T06:27:29;90.03;;;44.63;;
54743;SDS011;40639;53.170;6.728;2023-04-23T06:29:56;87.50;;;43.83;;
54743;SDS011;40639;53.170;6.728;2023-04-23T06:32:22;91.03;;;44.38;;
54743;SDS011;40639;53.170;6.728;2023-04-23T06:34:48;83.72;;;41.95;;
54743;SDS011;40639;53.170;6.728;2023-04-23T06:37:15;78.78;;;41.92;;
54743;SDS011;40639;53.170;6.728;2023-04-23T06:39:41;79.88;;;40.90;;
54743;SDS011;40639;53.170;6.728;2023-04-23T06:42:07;80.93;;;41.60;;
54743;SDS011;40639;53.170;6.728;2023-04-23T06:44:34;74.07;;;37.78;;
54743;SDS011;40639;53.170;6.728;2023-04-23T06:47:00;80.40;;;39.47;;
54743;SDS011;40639;53.170;6.728;2023-04-23T06:49:26;68.80;;;37.95;;
54743;SDS011;40639;53.170;6.728;2023-04-23T06:51:52;71.03;;;37.38;;
54743;SDS011;40639;53.170;6.728;2023-04-23T06:54:19;70.82;;;38.47;;
54743;SDS011;40639;53.170;6.728;2023-04-23T06:56:45;69.10;;;38.17;;
54743;SDS011;40639;53.170;6.728;2023-04-23T06:59:11;65.43;;;36.30;;
54743;SDS011;40639;53.170;6.728;2023-04-23T07:01:37;65.47;;;35.65;;
54743;SDS011;40639;53.170;6.728;2023-04-23T07:04:03;61.13;;;33.83;;
54743;SDS011;40639;53.170;6.728;2023-04-23T07:06:30;63.95;;;35.22;;
54743;SDS011;40639;53.170;6.728;2023-04-23T07:08:58;58.67;;;33.40;;
54743;SDS011;40639;53.170;6.728;2023-04-23T07:11:24;63.40;;;34.17;;
54743;SDS011;40639;53.170;6.728;2023-04-23T07:13:50;55.63;;;32.75;;
54743;SDS011;40639;53.170;6.728;2023-04-23T07:16:17;55.90;;;31.73;;
54743;SDS011;40639;53.170;6.728;2023-04-23T07:18:43;59.78;;;33.00;;
54743;SDS011;40639;53.170;6.728;2023-04-23T07:21:09;57.92;;;32.05;;
54743;SDS011;40639;53.170;6.728;2023-04-23T07:23:35;54.10;;;30.33;;
54743;SDS011;40639;53.170;6.728;2023-04-23T07:26:01;56.53;;;33.35;;
54743;SDS011;40639;53.170;6.728;2023-04-23T07:28:28;54.45;;;31.00;;
54743;SDS011;40639;53.170;6.728;2023-04-23T07:30:54;54.58;;;30.25;;
54743;SDS011;40639;53.170;6.728;2023-04-23T07:33:20;50.53;;;30.05;;
54743;SDS011;40639;53.170;6.728;2023-04-23T07:35:47;53.65;;;30.38;;
54743;SDS011;40639;53.170;6.728;2023-04-23T07:38:13;50.67;;;27.95;;
54743;SDS011;40639;53.170;6.728;2023-04-23T07:40:39;49.42;;;28.63;;
54743;SDS011;40639;53.170;6.728;2023-04-23T07:43:05;46.97;;;28.90;;
54743;SDS011;40639;53.170;6.728;2023-04-23T07:45:31;46.55;;;26.45;;
54743;SDS011;40639;53.170;6.728;2023-04-23T07:47:57;43.05;;;25.75;;
54743;SDS011;40639;53.170;6.728;2023-04-23T07:50:25;43.05;;;25.85;;
54743;SDS011;40639;53.170;6.728;2023-04-23T07:52:51;39.15;;;23.60;;
54743;SDS011;40639;53.170;6.728;2023-04-23T07:55:17;36.38;;;23.27;;
54743;SDS011;40639;53.170;6.728;2023-04-23T07:57:45;37.15;;;22.50;;
54743;SDS011;40639;53.170;6.728;2023-04-23T08:00:12;38.13;;;23.02;;
54743;SDS011;40639;53.170;6.728;2023-04-23T08:02:38;37.72;;;22.13;;
54743;SDS011;40639;53.170;6.728;2023-04-23T08:05:05;34.78;;;21.55;;
54743;SDS011;40639;53.170;6.728;2023-04-23T08:07:31;35.88;;;21.77;;
54743;SDS011;40639;53.170;6.728;2023-04-23T08:10:06;36.15;;;21.73;;
54743;SDS011;40639;53.170;6.728;2023-04-23T08:12:46;34.67;;;22.23;;
54743;SDS011;40639;53.170;6.728;2023-04-23T08:15:12;34.92;;;21.48;;
54743;SDS011;40639;53.170;6.728;2023-04-23T08:17:39;33.10;;;19.80;;
54743;SDS011;40639;53.170;6.728;2023-04-23T08:20:05;33.28;;;21.50;;
54743;SDS011;40639;53.170;6.728;2023-04-23T08:22:31;32.72;;;22.08;;
54743;SDS011;40639;53.170;6.728;2023-04-23T08:24:58;31.33;;;20.67;;
54743;SDS011;40639;53.170;6.728;2023-04-23T08:27:24;31.38;;;19.88;;
54743;SDS011;40639;53.170;6.728;2023-04-23T08:29:50;32.13;;;20.20;;
54743;SDS011;40639;53.170;6.728;2023-04-23T08:32:16;30.27;;;20.42;;
54743;SDS011;40639;53.170;6.728;2023-04-23T08:34:42;32.30;;;20.23;;
54743;SDS011;40639;53.170;6.728;2023-04-23T08:37:09;34.13;;;22.42;;
54743;SDS011;40639;53.170;6.728;2023-04-23T08:39:35;29.10;;;18.80;;
54743;SDS011;40639;53.170;6.728;2023-04-23T08:42:04;27.92;;;18.67;;
54743;SDS011;40639;53.170;6.728;2023-04-23T08:44:32;26.75;;;17.98;;
54743;SDS011;40639;53.170;6.728;2023-04-23T08:46:58;31.33;;;19.55;;
54743;SDS011;40639;53.170;6.728;2023-04-23T08:49:26;29.25;;;18.77;;
54743;SDS011;40639;53.170;6.728;2023-04-23T08:51:54;25.42;;;17.20;;
54743;SDS011;40639;53.170;6.728;2023-04-23T08:54:26;27.38;;;16.30;;
54743;SDS011;40639;53.170;6.728;2023-04-23T08:56:55;23.63;;;15.45;;
54743;SDS011;40639;53.170;6.728;2023-04-23T08:59:22;24.27;;;16.73;;
54743;SDS011;40639;53.170;6.728;2023-04-23T09:01:49;24.80;;;16.73;;
54743;SDS011;40639;53.170;6.728;2023-04-23T09:04:15;24.00;;;16.50;;
54743;SDS011;40639;53.170;6.728;2023-04-23T09:06:43;24.42;;;15.93;;
54743;SDS011;40639;53.170;6.728;2023-04-23T09:09:10;21.42;;;14.68;;
54743;SDS011;40639;53.170;6.728;2023-04-23T09:11:36;22.35;;;14.15;;
54743;SDS011;40639;53.170;6.728;2023-04-23T09:14:03;20.02;;;14.43;;
54743;SDS011;40639;53.170;6.728;2023-04-23T09:16:29;23.95;;;14.68;;
54743;SDS011;40639;53.170;6.728;2023-04-23T09:18:55;21.40;;;13.02;;
54743;SDS011;40639;53.170;6.728;2023-04-23T09:21:22;19.08;;;13.75;;
54743;SDS011;40639;53.170;6.728;2023-04-23T09:23:51;19.83;;;13.45;;
54743;SDS011;40639;53.170;6.728;2023-04-23T09:26:20;18.38;;;12.55;;
54743;SDS011;40639;53.170;6.728;2023-04-23T09:28:50;20.88;;;13.65;;
54743;SDS011;40639;53.170;6.728;2023-04-23T09:31:22;20.08;;;13.52;;
54743;SDS011;40639;53.170;6.728;2023-04-23T09:33:52;16.17;;;10.95;;
54743;SDS011;40639;53.170;6.728;2023-04-23T09:36:21;17.63;;;11.82;;
54743;SDS011;40639;53.170;6.728;2023-04-23T09:38:55;17.48;;;11.20;;
54743;SDS011;40639;53.170;6.728;2023-04-23T09:41:22;17.70;;;11.25;;
54743;SDS011;40639;53.170;6.728;2023-04-23T09:43:51;17.90;;;11.95;;
54743;SDS011;40639;53.170;6.728;2023-04-23T09:46:17;15.10;;;10.45;;
54743;SDS011;40639;53.170;6.728;2023-04-23T09:48:43;16.63;;;10.98;;
54743;SDS011;40639;53.170;6.728;2023-04-23T09:51:12;14.35;;;9.45;;
54743;SDS011;40639;53.170;6.728;2023-04-23T09:53:42;15.13;;;10.88;;
54743;SDS011;40639;53.170;6.728;2023-04-23T09:56:09;14.32;;;10.23;;
54743;SDS011;40639;53.170;6.728;2023-04-23T09:58:36;15.10;;;9.23;;
54743;SDS011;40639;53.170;6.728;2023-04-23T10:01:06;15.02;;;8.80;;
54743;SDS011;40639;53.170;6.728;2023-04-23T10:03:33;13.15;;;8.18;;
54743;SDS011;40639;53.170;6.728;2023-04-23T10:05:59;15.50;;;7.68;;
54743;SDS011;40639;53.170;6.728;2023-04-23T10:08:26;12.05;;;7.25;;
54743;SDS011;40639;53.170;6.728;2023-04-23T10:10:52;11.65;;;7.63;;
54743;SDS011;40639;53.170;6.728;2023-04-23T10:13:19;12.07;;;7.30;;
54743;SDS011;40639;53.170;6.728;2023-04-23T10:15:45;13.30;;;7.75;;
54743;SDS011;40639;53.170;6.728;2023-04-23T10:18:13;11.30;;;7.38;;
54743;SDS011;40639;53.170;6.728;2023-04-23T10:20:40;11.20;;;7.22;;
54743;SDS011;40639;53.170;6.728;2023-04-23T10:23:07;11.45;;;7.10;;
54743;SDS011;40639;53.170;6.728;2023-04-23T10:25:35;12.18;;;6.75;;
54743;SDS011;40639;53.170;6.728;2023-04-23T10:28:04;12.63;;;6.10;;
54743;SDS011;40639;53.170;6.728;2023-04-23T10:30:32;7.53;;;4.90;;
54743;SDS011;40639;53.170;6.728;2023-04-23T10:32:59;8.00;;;4.25;;
54743;SDS011;40639;53.170;6.728;2023-04-23T10:35:25;8.45;;;4.15;;
54743;SDS011;40639;53.170;6.728;2023-04-23T10:37:51;11.25;;;5.35;;
54743;SDS011;40639;53.170;6.728;2023-04-23T10:40:19;10.52;;;4.45;;
54743;SDS011;40639;53.170;6.728;2023-04-23T10:42:49;8.45;;;4.63;;
54743;SDS011;40639;53.170;6.728;2023-04-23T10:45:20;8.35;;;4.18;;
54743;SDS011;40639;53.170;6.728;2023-04-23T10:47:46;6.80;;;3.63;;
54743;SDS011;40639;53.170;6.728;2023-04-23T10:50:19;8.98;;;4.10;;
54743;SDS011;40639;53.170;6.728;2023-04-23T10:52:46;6.32;;;3.80;;
54743;SDS011;40639;53.170;6.728;2023-04-23T10:55:25;7.65;;;3.35;;
54743;SDS011;40639;53.170;6.728;2023-04-23T10:58:02;8.65;;;3.83;;
54743;SDS011;40639;53.170;6.728;2023-04-23T11:00:42;9.23;;;3.47;;
54743;SDS011;40639;53.170;6.728;2023-04-23T11:05:54;9.13;;;3.75;;
54743;SDS011;40639;53.170;6.728;2023-04-23T11:08:20;8.23;;;2.80;;
54743;SDS011;40639;53.170;6.728;2023-04-23T11:10:50;9.85;;;3.30;;
54743;SDS011;40639;53.170;6.728;2023-04-23T11:13:21;6.03;;;2.80;;
54743;SDS011;40639;53.170;6.728;2023-04-23T11:15:48;10.02;;;3.30;;
54743;SDS011;40639;53.170;6.728;2023-04-23T11:18:14;7.88;;;3.17;;
54743;SDS011;40639;53.170;6.728;2023-04-23T11:20:40;5.72;;;3.17;;
54743;SDS011;40639;53.170;6.728;2023-04-23T11:23:06;7.93;;;2.80;;
54743;SDS011;40639;53.170;6.728;2023-04-23T11:25:32;5.45;;;2.72;;
54743;SDS011;40639;53.170;6.728;2023-04-23T11:28:00;8.38;;;3.13;;
54743;SDS011;40639;53.170;6.728;2023-04-23T11:30:29;4.82;;;2.47;;
54743;SDS011;40639;53.170;6.728;2023-04-23T11:32:56;5.50;;;2.40;;
54743;SDS011;40639;53.170;6.728;2023-04-23T11:35:24;5.45;;;2.40;;
54743;SDS011;40639;53.170;6.728;2023-04-23T11:37:52;6.13;;;2.72;;
54743;SDS011;40639;53.170;6.728;2023-04-23T11:40:20;5.90;;;2.55;;
54743;SDS011;40639;53.170;6.728;2023-04-23T11:42:48;8.23;;;2.58;;
54743;SDS011;40639;53.170;6.728;2023-04-23T11:47:51;6.00;;;2.40;;
54743;SDS011;40639;53.170;6.728;2023-04-23T11:50:20;5.30;;;2.00;;
54743;SDS011;40639;53.170;6.728;2023-04-23T11:52:47;5.13;;;2.17;;
54743;SDS011;40639;53.170;6.728;2023-04-23T11:55:13;5.85;;;1.83;;
54743;SDS011;40639;53.170;6.728;2023-04-23T11:57:47;7.25;;;1.83;;
54743;SDS011;40639;53.170;6.728;2023-04-23T12:02:50;5.25;;;2.30;;
54743;SDS011;40639;53.170;6.728;2023-04-23T12:05:20;6.13;;;2.42;;
54743;SDS011;40639;53.170;6.728;2023-04-23T12:07:50;4.82;;;2.03;;
54743;SDS011;40639;53.170;6.728;2023-04-23T12:10:17;5.80;;;2.20;;
54743;SDS011;40639;53.170;6.728;2023-04-23T12:12:43;6.30;;;1.92;;
54743;SDS011;40639;53.170;6.728;2023-04-23T12:15:09;7.07;;;2.05;;
54743;SDS011;40639;53.170;6.728;2023-04-23T12:17:36;4.22;;;1.92;;
54743;SDS011;40639;53.170;6.728;2023-04-23T12:20:03;5.03;;;1.73;;
54743;SDS011;40639;53.170;6.728;2023-04-23T12:22:31;4.50;;;1.80;;
54743;SDS011;40639;53.170;6.728;2023-04-23T12:24:57;4.45;;;1.52;;
54743;SDS011;40639;53.170;6.728;2023-04-23T12:27:25;4.57;;;1.38;;
54743;SDS011;40639;53.170;6.728;2023-04-23T12:29:59;3.58;;;1.50;;
54743;SDS011;40639;53.170;6.728;2023-04-23T12:32:25;2.90;;;1.40;;
54743;SDS011;40639;53.170;6.728;2023-04-23T12:34:52;3.67;;;1.63;;
54743;SDS011;40639;53.170;6.728;2023-04-23T12:37:22;4.07;;;1.50;;
54743;SDS011;40639;53.170;6.728;2023-04-23T12:39:49;4.15;;;1.20;;
54743;SDS011;40639;53.170;6.728;2023-04-23T12:42:17;3.80;;;1.25;;
54743;SDS011;40639;53.170;6.728;2023-04-23T12:44:43;3.15;;;1.30;;
54743;SDS011;40639;53.170;6.728;2023-04-23T12:47:09;2.55;;;1.17;;
54743;SDS011;40639;53.170;6.728;2023-04-23T12:49:37;8.02;;;1.67;;
54743;SDS011;40639;53.170;6.728;2023-04-23T12:52:03;4.30;;;1.52;;
54743;SDS011;40639;53.170;6.728;2023-04-23T12:54:31;4.43;;;1.83;;
54743;SDS011;40639;53.170;6.728;2023-04-23T12:56:58;4.05;;;1.77;;
54743;SDS011;40639;53.170;6.728;2023-04-23T12:59:25;3.38;;;1.27;;
54743;SDS011;40639;53.170;6.728;2023-04-23T13:01:52;5.20;;;1.55;;
54743;SDS011;40639;53.170;6.728;2023-04-23T13:04:18;2.90;;;1.40;;
54743;SDS011;40639;53.170;6.728;2023-04-23T13:06:44;4.25;;;1.60;;
54743;SDS011;40639;53.170;6.728;2023-04-23T13:09:11;3.33;;;1.35;;
54743;SDS011;40639;53.170;6.728;2023-04-23T13:11:37;4.60;;;1.67;;
54743;SDS011;40639;53.170;6.728;2023-04-23T13:14:04;4.35;;;1.67;;
54743;SDS011;40639;53.170;6.728;2023-04-23T13:16:30;4.45;;;1.50;;
54743;SDS011;40639;53.170;6.728;2023-04-23T13:18:56;4.97;;;1.95;;
54743;SDS011;40639;53.170;6.728;2023-04-23T13:21:22;3.75;;;1.95;;
54743;SDS011;40639;53.170;6.728;2023-04-23T13:23:49;5.65;;;1.60;;
54743;SDS011;40639;53.170;6.728;2023-04-23T13:26:15;5.90;;;2.10;;
54743;SDS011;40639;53.170;6.728;2023-04-23T13:28:41;6.72;;;2.10;;
54743;SDS011;40639;53.170;6.728;2023-04-23T13:31:07;4.40;;;1.90;;
54743;SDS011;40639;53.170;6.728;2023-04-23T13:33:36;4.35;;;2.08;;
54743;SDS011;40639;53.170;6.728;2023-04-23T13:36:03;3.90;;;1.60;;
54743;SDS011;40639;53.170;6.728;2023-04-23T13:38:29;4.40;;;1.60;;
54743;SDS011;40639;53.170;6.728;2023-04-23T13:40:55;3.80;;;1.95;;
54743;SDS011;40639;53.170;6.728;2023-04-23T13:43:22;4.28;;;1.42;;
54743;SDS011;40639;53.170;6.728;2023-04-23T13:45:48;3.97;;;1.40;;
54743;SDS011;40639;53.170;6.728;2023-04-23T13:48:14;4.10;;;1.60;;
54743;SDS011;40639;53.170;6.728;2023-04-23T13:50:41;3.08;;;1.52;;
54743;SDS011;40639;53.170;6.728;2023-04-23T13:53:08;4.35;;;1.45;;
54743;SDS011;40639;53.170;6.728;2023-04-23T13:55:35;5.68;;;1.90;;
54743;SDS011;40639;53.170;6.728;2023-04-23T13:58:05;4.82;;;1.60;;
54743;SDS011;40639;53.170;6.728;2023-04-23T14:00:31;4.38;;;1.55;;
54743;SDS011;40639;53.170;6.728;2023-04-23T14:02:57;5.43;;;1.40;;
54743;SDS011;40639;53.170;6.728;2023-04-23T14:05:24;3.10;;;1.27;;
54743;SDS011;40639;53.170;6.728;2023-04-23T14:07:50;2.95;;;1.25;;
54743;SDS011;40639;53.170;6.728;2023-04-23T14:10:16;3.55;;;1.45;;
54743;SDS011;40639;53.170;6.728;2023-04-23T14:12:43;5.35;;;1.30;;
54743;SDS011;40639;53.170;6.728;2023-04-23T14:15:10;3.90;;;1.75;;
54743;SDS011;40639;53.170;6.728;2023-04-23T14:17:37;5.53;;;1.55;;
54743;SDS011;40639;53.170;6.728;2023-04-23T14:20:05;5.07;;;1.55;;
54743;SDS011;40639;53.170;6.728;2023-04-23T14:22:31;4.20;;;1.42;;
54743;SDS011;40639;53.170;6.728;2023-04-23T14:25:02;4.00;;;1.48;;
54743;SDS011;40639;53.170;6.728;2023-04-23T14:27:32;6.40;;;1.48;;
54743;SDS011;40639;53.170;6.728;2023-04-23T14:30:01;3.33;;;1.48;;
54743;SDS011;40639;53.170;6.728;2023-04-23T14:32:29;4.75;;;1.42;;
54743;SDS011;40639;53.170;6.728;2023-04-23T14:34:55;5.10;;;1.58;;
54743;SDS011;40639;53.170;6.728;2023-04-23T14:37:22;4.05;;;1.48;;